createdAt,value
2023-03-25T09:18:01.788Z,80.16967773
2023-03-25T09:19:02.760Z,79.14428711
2023-03-25T09:20:33.667Z,79.04052734
2023-03-25T09:21:34.180Z,79.44946289
2023-03-25T09:22:34.662Z,78.93676758
2023-03-25T09:23:35.283Z,78.3203125
2023-03-25T09:24:35.905Z,78.22265625
2023-03-25T09:25:36.406Z,78.42407227
2023-03-25T09:26:36.955Z,78.52783203
2023-03-25T09:27:37.432Z,78.73535156
2023-03-25T09:28:37.899Z,78.52783203
2023-03-25T09:29:39.003Z,79.14428711
2023-03-25T09:30:39.677Z,78.93676758
2023-03-25T09:31:40.237Z,78.6315918
2023-03-25T09:32:41.308Z,78.86962891
2023-03-25T09:33:42.077Z,79.34570313
2023-03-25T09:34:42.633Z,79.34570313
2023-03-25T09:35:43.240Z,79.04052734
2023-03-25T09:36:44.627Z,79.79736328
2023-03-25T09:37:45.126Z,80.20629883
2023-03-25T09:38:45.641Z,79.79736328
2023-03-25T09:39:46.981Z,79.9987793
2023-03-25T09:40:47.423Z,79.44946289
2023-03-25T09:41:47.928Z,79.34570313
2023-03-25T09:42:49.246Z,78.52783203
2023-03-25T09:43:49.738Z,78.01513672
2023-03-25T09:44:50.136Z,78.11889648
2023-03-25T09:45:50.781Z,78.22265625
2023-03-25T09:46:51.071Z,78.46069336
2023-03-25T09:47:51.597Z,78.56445313
2023-03-25T09:48:52.154Z,78.25317383
2023-03-25T09:49:53.482Z,78.66821289
2023-03-25T09:50:53.921Z,79.38232422
2023-03-25T09:51:54.410Z,79.14428711
2023-03-25T09:52:54.835Z,78.6315918
2023-03-25T09:53:55.324Z,78.83300781
2023-03-25T09:54:55.760Z,78.93676758
2023-03-25T09:55:56.188Z,78.49121094
2023-03-25T09:56:56.663Z,77.97851563
2023-03-25T09:57:57.181Z,78.6315918
2023-03-25T09:58:57.614Z,78.90014648
2023-03-25T09:59:58.992Z,79.00390625
2023-03-25T10:00:59.453Z,78.69873047
2023-03-25T10:01:59.851Z,79.10766602
2023-03-25T10:03:00.997Z,78.38745117
2023-03-25T10:04:02.075Z,78.86352539
2023-03-25T10:05:32.986Z,78.90014648
2023-03-25T10:06:33.467Z,78.90014648
2023-03-25T10:07:33.899Z,79.10766602
2023-03-25T10:08:34.342Z,79.51660156
2023-03-25T10:09:35.819Z,79.10766602
2023-03-25T10:10:36.291Z,78.69873047
2023-03-25T10:11:36.758Z,78.90014648
2023-03-25T10:12:37.204Z,79.10766602
2023-03-25T10:13:37.629Z,78.90014648
2023-03-25T10:14:38.189Z,79.20532227
2023-03-25T10:15:38.689Z,78.69873047
2023-03-25T10:16:39.213Z,78.38745117
2023-03-25T10:17:39.730Z,77.97851563
2023-03-25T10:18:40.171Z,78.49121094
2023-03-25T10:19:40.679Z,78.49121094
2023-03-25T10:20:41.130Z,77.67333984
2023-03-25T10:21:41.621Z,77.77099609
2023-03-25T10:22:42.981Z,77.46582031
2023-03-25T10:23:43.436Z,77.25830078
2023-03-25T10:24:43.869Z,77.25830078
2023-03-25T10:25:44.357Z,77.02026367
2023-03-25T10:26:44.830Z,75.82397461
2023-03-25T10:27:45.268Z,75.62255859
2023-03-25T10:28:45.759Z,75.99487305
2023-03-25T10:29:46.800Z,75.89111328
2023-03-25T10:30:47.240Z,76.09863281
2023-03-25T10:31:47.765Z,75.79345703
2023-03-25T10:32:48.840Z,75.5859375
2023-03-25T10:33:49.240Z,75.21362305
2023-03-25T10:34:49.668Z,75.5859375
2023-03-25T10:35:50.462Z,75.48217773
2023-03-25T10:36:50.642Z,75.17700195
2023-03-25T10:37:51.144Z,74.76806641
2023-03-25T10:38:51.592Z,74.15161133
2023-03-25T10:39:52.784Z,74.35913086
2023-03-25T10:40:53.369Z,73.53515625
2023-03-25T10:41:53.639Z,73.53515625
2023-03-25T10:42:54.116Z,74.25537109
2023-03-25T10:43:54.606Z,74.15161133
2023-03-25T10:44:55.100Z,74.15161133
2023-03-25T10:45:55.627Z,73.33374023
2023-03-25T10:46:55.986Z,73.4375
2023-03-25T10:47:56.482Z,72.61352539
2023-03-25T10:48:56.932Z,72.61352539
2023-03-25T10:49:58.316Z,71.49047852
2023-03-25T10:50:58.728Z,71.17919922
2023-03-25T10:51:59.278Z,71.31958008
2023-03-25T10:52:59.734Z,72.24121094
2023-03-25T10:54:00.220Z,72.44262695
2023-03-25T10:55:00.715Z,72.54638672
2023-03-25T10:56:01.065Z,73.60839844
2023-03-25T10:57:01.996Z,74.01733398
2023-03-25T10:58:32.981Z,72.58300781
2023-03-25T10:59:34.270Z,71.86279297
2023-03-25T11:00:34.865Z,72.50976563
2023-03-25T11:01:35.239Z,73.09570313
2023-03-25T11:02:36.332Z,72.78442383
2023-03-25T11:03:37.574Z,71.96655273
2023-03-25T11:04:38.091Z,72.47924805
2023-03-25T11:05:38.657Z,71.7590332
2023-03-25T11:06:39.014Z,72.58300781
2023-03-25T11:07:39.511Z,72.68066406
2023-03-25T11:08:39.936Z,72.92480469
2023-03-25T11:09:41.265Z,72.61352539
2023-03-25T11:10:41.706Z,73.4375
2023-03-25T11:11:42.147Z,74.35913086
2023-03-25T11:12:43.475Z,74.56665039
2023-03-25T11:13:42.996Z,74.42626953
2023-03-25T11:14:43.463Z,74.63378906
2023-03-25T11:15:44.007Z,74.63378906
2023-03-25T11:16:44.454Z,75.34790039
2023-03-25T11:17:44.819Z,75.14648438
2023-03-25T11:18:45.217Z,75.14648438
2023-03-25T11:19:46.253Z,75.45166016
2023-03-25T11:20:46.766Z,75.65917969
2023-03-25T11:21:47.353Z,75.65917969
2023-03-25T11:22:47.813Z,75.14648438
2023-03-25T11:23:48.269Z,75.34790039
2023-03-25T11:24:48.701Z,74.8046875
2023-03-25T11:25:49.513Z,74.93896484
2023-03-25T11:26:49.679Z,75.24414063
2023-03-25T11:27:50.149Z,74.83520508
2023-03-25T11:28:50.558Z,74.93896484
2023-03-25T11:29:51.750Z,75.34790039
2023-03-25T11:30:52.232Z,75.55541992
2023-03-25T11:31:52.655Z,75.65917969
2023-03-25T11:32:54.029Z,75.8605957
2023-03-25T11:33:54.951Z,76.26953125
2023-03-25T11:34:55.430Z,75.96435547
2023-03-25T11:35:55.874Z,74.73144531
2023-03-25T11:36:56.386Z,75.04272461
2023-03-25T11:37:56.891Z,75.24414063
2023-03-25T11:38:57.444Z,74.93896484
2023-03-25T11:39:58.733Z,75.17700195
2023-03-25T11:40:59.213Z,74.87182617
2023-03-25T11:41:59.687Z,75.0793457
2023-03-25T11:43:00.155Z,74.56665039
2023-03-25T11:44:00.578Z,75.59204102
2023-03-25T11:45:32.536Z,75.17700195
2023-03-25T11:46:32.399Z,75.48828125
2023-03-25T11:47:32.868Z,75.38452148
2023-03-25T11:48:33.324Z,75.68969727
2023-03-25T11:49:33.793Z,75.59204102
2023-03-25T11:50:34.946Z,75.68969727
2023-03-25T11:51:35.374Z,75.48828125
2023-03-25T11:52:35.851Z,76.00097656
2023-03-25T11:53:36.295Z,76.40991211
2023-03-25T11:54:36.750Z,76.71508789
2023-03-25T11:55:37.153Z,76.81884766
2023-03-25T11:56:37.617Z,77.02636719
2023-03-25T11:57:38.064Z,76.71508789
2023-03-25T11:58:38.506Z,76.71508789
2023-03-25T11:59:39.011Z,76.71508789
2023-03-25T12:00:40.464Z,76.92260742
2023-03-25T12:01:40.912Z,77.2277832
2023-03-25T12:02:42.299Z,77.43530273
2023-03-25T12:03:43.366Z,77.43530273
2023-03-25T12:04:44.254Z,76.71508789
2023-03-25T12:05:44.718Z,76.81884766
2023-03-25T12:06:45.245Z,76.30615234
2023-03-25T12:07:45.613Z,76.20239258
2023-03-25T12:08:46.120Z,75.14648438
2023-03-25T12:09:46.570Z,75.34790039
2023-03-25T12:10:48.003Z,75.65917969
2023-03-25T12:11:48.607Z,75.82397461
2023-03-25T12:12:48.944Z,76.64794922
2023-03-25T12:13:49.396Z,77.46582031
2023-03-25T12:14:49.937Z,77.02026367
2023-03-25T12:15:50.623Z,77.12402344
2023-03-25T12:16:50.774Z,75.68969727
2023-03-25T12:17:51.325Z,75.17700195
2023-03-25T12:18:51.684Z,75.79345703
2023-03-25T12:19:52.213Z,75.48217773
2023-03-25T12:20:53.462Z,75.5859375
2023-03-25T12:21:53.931Z,76.20239258
2023-03-25T12:22:54.422Z,75.68969727
2023-03-25T12:23:54.797Z,75.99487305
2023-03-25T12:24:55.270Z,75.75683594
2023-03-25T12:25:55.727Z,75.95825195
2023-03-25T12:26:56.220Z,74.83520508
2023-03-25T12:27:56.693Z,73.80981445
2023-03-25T12:28:57.106Z,73.29711914
2023-03-25T12:29:57.690Z,73.09570313
2023-03-25T12:30:58.998Z,72.58300781
2023-03-25T12:31:59.481Z,73.26660156
2023-03-25T12:33:31.767Z,73.05908203
2023-03-25T12:34:32.471Z,72.75390625
2023-03-25T12:35:32.995Z,73.1628418
2023-03-25T12:36:33.394Z,72.3449707
2023-03-25T12:37:34.486Z,72.51586914
2023-03-25T12:38:34.938Z,72.82104492
2023-03-25T12:39:42.807Z,72.00317383
2023-03-25T12:40:36.747Z,72.71728516
2023-03-25T12:41:37.267Z,72.27783203
2023-03-25T12:42:37.699Z,71.97265625
2023-03-25T12:43:38.997Z,72.17407227
2023-03-25T12:44:39.483Z,72.0703125
2023-03-25T12:45:39.936Z,71.76513672
2023-03-25T12:46:40.413Z,70.91674805
2023-03-25T12:47:40.923Z,70.91674805
2023-03-25T12:48:41.336Z,69.86083984
2023-03-25T12:49:41.775Z,69.75708008
2023-03-25T12:50:42.750Z,67.78564453
2023-03-25T12:51:43.245Z,67.0715332
2023-03-25T12:52:43.708Z,67.578125
2023-03-25T12:53:44.171Z,67.68188477
2023-03-25T12:54:44.682Z,65.94848633
2023-03-25T12:55:45.096Z,66.14990234
2023-03-25T12:56:45.549Z,65.84472656
2023-03-25T12:57:45.970Z,65.94848633
2023-03-25T12:58:46.428Z,66.28417969
2023-03-25T12:59:47.746Z,66.38793945
2023-03-25T13:00:48.887Z,66.18041992
2023-03-25T13:01:49.836Z,66.69311523
2023-03-25T13:02:50.718Z,67.10205078
2023-03-25T13:03:51.775Z,67.3034668
2023-03-25T13:04:52.195Z,67.10205078
2023-03-25T13:05:52.639Z,67.51098633
2023-03-25T13:06:53.035Z,67.23632813
2023-03-25T13:07:54.313Z,67.43774414
2023-03-25T13:08:54.801Z,67.64526367
2023-03-25T13:09:55.272Z,68.15795898
2023-03-25T13:10:56.249Z,68.359375
2023-03-25T13:11:56.674Z,68.96972656
2023-03-25T13:12:57.111Z,69.07348633
2023-03-25T13:13:57.609Z,68.76831055
2023-03-25T13:14:58.063Z,68.87207031
2023-03-25T13:15:59.477Z,68.66455078
2023-03-25T13:17:30.500Z,68.76831055
2023-03-25T13:18:31.670Z,69.28100586
2023-03-25T13:19:32.577Z,70.1965332
2023-03-25T13:20:33.799Z,71.08764648
2023-03-25T13:21:34.290Z,70.88012695
2023-03-25T13:22:34.814Z,71.18530273
2023-03-25T13:23:35.354Z,71.2890625
2023-03-25T13:24:35.850Z,71.2890625
2023-03-25T13:25:36.468Z,71.08764648
2023-03-25T13:26:36.948Z,71.25854492
2023-03-25T13:27:37.999Z,69.31762695
2023-03-25T13:28:38.547Z,68.49975586
2023-03-25T13:29:38.957Z,67.95654297
2023-03-25T13:30:40.248Z,67.41333008
2023-03-25T13:31:40.724Z,66.57104492
2023-03-25T13:32:41.771Z,66.22924805
2023-03-25T13:33:42.755Z,65.52124023
2023-03-25T13:34:43.214Z,65.18554688
2023-03-25T13:35:43.680Z,65.35644531
2023-03-25T13:36:44.960Z,63.49487305
2023-03-25T13:37:45.367Z,63.46435547
2023-03-25T13:38:45.805Z,61.81030273
2023-03-25T13:39:46.792Z,61.22436523
2023-03-25T13:40:48.376Z,62.34741211
2023-03-25T13:41:49.737Z,61.328125
2023-03-25T13:42:49.206Z,61.50512695
2023-03-25T13:43:50.464Z,59.46655273
2023-03-25T13:44:51.038Z,59.19189453
2023-03-25T13:45:51.418Z,58.4777832
2023-03-25T13:46:52.756Z,58.85620117
2023-03-25T13:47:53.235Z,59.0637207
2023-03-25T13:48:53.613Z,59.49707031
2023-03-25T13:49:54.128Z,59.60083008
2023-03-25T13:50:55.320Z,59.39331055
2023-03-25T13:51:55.893Z,59.16137695
2023-03-25T13:52:56.382Z,58.32519531
2023-03-25T13:53:56.861Z,58.65478516
2023-03-25T13:54:57.334Z,59.26513672
2023-03-25T13:55:57.754Z,59.49707031
2023-03-25T13:56:58.235Z,60.03417969
2023-03-25T13:57:58.653Z,60.16235352
2023-03-25T13:58:59.054Z,61.59057617
2023-03-25T14:00:29.990Z,61.68823242
2023-03-25T14:01:31.039Z,60.98022461
2023-03-25T14:02:31.474Z,61.07788086
2023-03-25T14:03:32.520Z,61.92626953
2023-03-25T14:04:33.455Z,62.63427734
2023-03-25T14:05:33.942Z,62.46337891
2023-03-25T14:06:34.329Z,63.07373047
2023-03-25T14:07:34.920Z,62.46337891
2023-03-25T14:08:35.401Z,63.17749023
2023-03-25T14:09:35.833Z,61.92626953
2023-03-25T14:10:36.382Z,61.25488281
2023-03-25T14:11:37.462Z,60.4675293
2023-03-25T14:12:37.921Z,59.69848633
2023-03-25T14:13:38.378Z,58.99047852
2023-03-25T14:14:38.941Z,58.68530273
2023-03-25T14:15:39.627Z,59.01489258
2023-03-25T14:16:40.047Z,59.72900391
2023-03-25T14:17:40.596Z,59.00878906
2023-03-25T14:18:41.011Z,57.02514648
2023-03-25T14:19:41.452Z,55.2734375
2023-03-25T14:20:42.014Z,55.29785156
2023-03-25T14:21:43.029Z,56.23779297
2023-03-25T14:22:44.201Z,57.20825195
2023-03-25T14:23:44.628Z,57.73925781
2023-03-25T14:24:44.420Z,57.86743164
2023-03-25T14:25:44.908Z,58.40454102
2023-03-25T14:26:45.356Z,58.83789063
2023-03-25T14:27:45.806Z,58.56323242
2023-03-25T14:28:46.242Z,58.69140625
2023-03-25T14:29:46.661Z,59.22851563
2023-03-25T14:30:47.189Z,59.94262695
2023-03-25T14:31:47.568Z,60.58349609
2023-03-25T14:32:48.050Z,61.09008789
2023-03-25T14:33:48.527Z,61.70654297
2023-03-25T14:34:48.990Z,62.24365234
2023-03-25T14:35:49.557Z,62.37182617
2023-03-25T14:36:49.851Z,62.17041016
2023-03-25T14:37:50.415Z,62.37182617
2023-03-25T14:38:50.853Z,62.70751953
2023-03-25T14:39:51.336Z,63.22021484
2023-03-25T14:41:02.690Z,63.3972168
2023-03-25T14:41:52.228Z,63.49487305
2023-03-25T14:42:52.680Z,63.671875
2023-03-25T14:43:53.127Z,62.72583008
2023-03-25T14:44:53.564Z,62.05444336
2023-03-25T14:45:53.984Z,60.74829102
2023-03-25T14:46:54.496Z,59.5703125
2023-03-25T14:47:54.988Z,58.32519531
2023-03-25T14:48:55.439Z,57.37915039
2023-03-25T14:49:55.931Z,56.03637695
2023-03-25T14:50:56.490Z,56.18896484
2023-03-25T14:51:56.866Z,56.51855469
2023-03-25T14:52:57.288Z,57.12890625
2023-03-25T14:53:57.778Z,56.62231445
2023-03-25T14:54:58.351Z,58.22753906
2023-03-25T14:56:29.370Z,58.43505859
2023-03-25T14:57:29.748Z,58.15429688
2023-03-25T14:58:30.171Z,59.12475586
2023-03-25T14:59:30.646Z,59.53369141
2023-03-25T15:00:31.186Z,59.94262695
2023-03-25T15:01:31.630Z,59.765625
2023-03-25T15:02:32.073Z,60.27832031
2023-03-25T15:03:32.687Z,60.78491211
2023-03-25T15:04:33.109Z,61.19384766
2023-03-25T15:05:33.612Z,61.39526367
2023-03-25T15:06:34.055Z,61.19384766
2023-03-25T15:07:34.486Z,61.12060547
2023-03-25T15:08:34.979Z,61.29760742
2023-03-25T15:09:35.416Z,61.19384766
2023-03-25T15:10:35.868Z,60.99243164
2023-03-25T15:11:36.331Z,60.99243164
2023-03-25T15:12:36.729Z,61.29760742
2023-03-25T15:13:37.191Z,61.29760742
2023-03-25T15:14:37.761Z,60.88867188
2023-03-25T15:15:38.238Z,60.81542969
2023-03-25T15:16:38.889Z,60.51025391
2023-03-25T15:17:39.223Z,60.40649414
2023-03-25T15:18:39.705Z,60.47973633
2023-03-25T15:19:40.395Z,59.74121094
2023-03-25T15:20:40.919Z,57.87353516
2023-03-25T15:21:41.365Z,58.38623047
2023-03-25T15:22:41.778Z,58.81958008
2023-03-25T15:23:42.257Z,59.02709961
2023-03-25T15:24:42.712Z,59.12475586
2023-03-25T15:25:43.293Z,59.12475586
2023-03-25T15:26:43.754Z,58.81958008
2023-03-25T15:27:44.296Z,58.31298828
2023-03-25T15:28:44.747Z,56.82983398
2023-03-25T15:29:45.232Z,54.28466797
2023-03-25T15:30:45.667Z,52.48413086
2023-03-25T15:31:46.238Z,50.78735352
2023-03-25T15:32:46.679Z,49.7253418
2023-03-25T15:33:47.124Z,48.26049805
2023-03-25T15:34:47.572Z,46.82617188
2023-03-25T15:35:48.028Z,46.84448242
2023-03-25T15:36:48.525Z,48.10791016
2023-03-25T15:37:48.953Z,48.20556641
2023-03-25T15:38:49.390Z,49.04174805
2023-03-25T15:39:49.874Z,49.36523438
2023-03-25T15:40:50.524Z,50.5065918
2023-03-25T15:41:50.884Z,50.75683594
2023-03-25T15:42:51.352Z,51.59301758
2023-03-25T15:44:00.558Z,51.81884766
2023-03-25T15:44:52.214Z,52.25219727
2023-03-25T15:45:52.643Z,52.78320313
2023-03-25T15:46:53.114Z,53.52172852
2023-03-25T15:47:53.613Z,53.85131836
2023-03-25T15:48:54.022Z,54.05273438
2023-03-25T15:49:54.422Z,54.56542969
2023-03-25T15:50:54.846Z,54.79125977
2023-03-25T15:51:55.326Z,54.9987793
2023-03-25T15:52:55.773Z,54.38842773
2023-03-25T15:53:56.247Z,54.4128418
2023-03-25T15:54:56.714Z,55.12695313
2023-03-25T15:55:57.174Z,55.3527832
2023-03-25T15:56:58.209Z,55.99365234
2023-03-25T15:58:28.881Z,56.19506836
2023-03-25T15:59:29.369Z,56.40258789
2023-03-25T16:00:29.825Z,56.70776367
2023-03-25T16:01:30.337Z,56.93969727
2023-03-25T16:02:30.884Z,57.14111328
2023-03-25T16:03:31.229Z,57.44628906
2023-03-25T16:04:31.638Z,57.65380859
2023-03-25T16:05:32.385Z,57.85522461
2023-03-25T16:06:32.839Z,58.05664063
2023-03-25T16:07:33.258Z,57.95898438
2023-03-25T16:08:33.648Z,57.85522461
2023-03-25T16:09:34.107Z,57.98339844
2023-03-25T16:10:34.544Z,58.19091797
2023-03-25T16:11:35.016Z,58.39233398
2023-03-25T16:12:35.519Z,58.59985352
2023-03-25T16:13:35.883Z,58.69750977
2023-03-25T16:14:38.150Z,58.49609375
2023-03-25T16:15:36.825Z,58.59985352
2023-03-25T16:16:37.326Z,58.80126953
2023-03-25T16:17:37.729Z,58.9050293
2023-03-25T16:18:38.130Z,58.69750977
2023-03-25T16:19:38.636Z,58.9050293
2023-03-25T16:20:39.093Z,59.10644531
2023-03-25T16:21:39.530Z,58.9050293
2023-03-25T16:22:39.971Z,59.10644531
2023-03-25T16:23:40.414Z,59.10644531
2023-03-25T16:24:40.891Z,59.21020508
2023-03-25T16:25:41.405Z,59.41162109
2023-03-25T16:26:41.903Z,59.41162109
2023-03-25T16:27:42.574Z,59.61914063
2023-03-25T16:28:43.013Z,59.58862305
2023-03-25T16:29:43.436Z,59.69238281
2023-03-25T16:30:43.922Z,59.58862305
2023-03-25T16:31:44.368Z,59.61914063
2023-03-25T16:32:45.045Z,59.72290039
2023-03-25T16:33:45.338Z,60.02807617
2023-03-25T16:34:45.790Z,60.12573242
2023-03-25T16:35:46.341Z,60.12573242
2023-03-25T16:36:46.773Z,59.82055664
2023-03-25T16:37:47.267Z,59.61914063
2023-03-25T16:38:47.695Z,59.61914063
2023-03-25T16:39:48.190Z,59.82055664
2023-03-25T16:40:48.668Z,59.72290039
2023-03-25T16:41:49.248Z,59.61914063
2023-03-25T16:42:49.767Z,59.72290039
2023-03-25T16:43:50.279Z,59.41162109
2023-03-25T16:44:50.688Z,59.61914063
2023-03-25T16:45:51.148Z,59.61914063
2023-03-25T16:46:51.600Z,59.51538086
2023-03-25T16:47:52.206Z,59.51538086
2023-03-25T16:48:52.497Z,59.51538086
2023-03-25T16:49:52.961Z,59.82055664
2023-03-25T16:50:53.801Z,59.82055664
2023-03-25T16:51:54.289Z,59.61914063
2023-03-25T16:52:56.804Z,59.74731445
2023-03-25T16:53:55.302Z,59.74731445
2023-03-25T16:54:55.773Z,59.54589844
2023-03-25T16:55:56.209Z,59.13696289
2023-03-25T16:56:56.683Z,59.03320313
2023-03-25T16:58:27.865Z,59.23461914
2023-03-25T16:59:28.215Z,59.16137695
2023-03-25T17:00:28.741Z,59.46655273
2023-03-25T17:01:29.305Z,59.67407227
2023-03-25T17:02:29.703Z,59.67407227
2023-03-25T17:03:30.230Z,59.77783203
2023-03-25T17:04:30.740Z,59.64355469
2023-03-25T17:05:31.252Z,59.67407227
2023-03-25T17:06:31.741Z,59.97924805
2023-03-25T17:07:32.500Z,60.08300781
2023-03-25T17:08:32.988Z,60.18676758
2023-03-25T17:09:33.398Z,60.38818359
2023-03-25T17:10:33.917Z,60.49194336
2023-03-25T17:11:34.365Z,60.08300781
2023-03-25T17:12:34.776Z,60.08300781
2023-03-25T17:13:35.225Z,60.08300781
2023-03-25T17:14:35.669Z,60.41870117
2023-03-25T17:15:36.162Z,60.52246094
2023-03-25T17:16:36.593Z,60.52246094
2023-03-25T17:17:37.040Z,60.52246094
2023-03-25T17:18:37.508Z,60.62011719
2023-03-25T17:19:37.942Z,60.62011719
2023-03-25T17:20:38.441Z,60.62011719
2023-03-25T17:21:38.899Z,60.62011719
2023-03-25T17:22:39.371Z,60.82763672
2023-03-25T17:23:39.786Z,60.79711914
2023-03-25T17:24:40.211Z,60.90087891
2023-03-25T17:25:40.649Z,60.79711914
2023-03-25T17:26:41.235Z,60.93139648
2023-03-25T17:27:43.469Z,61.00463867
2023-03-25T17:28:42.852Z,61.23657227
2023-03-25T17:29:42.643Z,61.23657227
2023-03-25T17:30:43.175Z,61.23657227
2023-03-25T17:31:43.852Z,61.43798828
2023-03-25T17:32:44.284Z,61.64550781
2023-03-25T17:33:44.765Z,61.64550781
2023-03-25T17:34:45.163Z,61.74926758
2023-03-25T17:35:45.619Z,61.84692383
2023-03-25T17:36:46.135Z,61.84692383
2023-03-25T17:37:46.618Z,62.05444336
2023-03-25T17:38:47.296Z,62.15820313
2023-03-25T17:39:47.604Z,62.05444336
2023-03-25T17:40:48.083Z,62.25585938
2023-03-25T17:41:48.524Z,62.46337891
2023-03-25T17:42:48.992Z,62.46337891
2023-03-25T17:43:49.485Z,62.25585938
2023-03-25T17:44:50.128Z,62.35961914
2023-03-25T17:45:50.608Z,62.46337891
2023-03-25T17:46:51.085Z,62.35961914
2023-03-25T17:47:51.592Z,62.35961914
2023-03-25T17:48:52.016Z,62.35961914
2023-03-25T17:49:52.419Z,62.56713867
2023-03-25T17:50:52.986Z,62.66479492
2023-03-25T17:51:53.302Z,62.66479492
2023-03-25T17:52:53.730Z,62.76855469
2023-03-25T17:53:54.199Z,62.76855469
2023-03-25T17:54:54.665Z,62.76855469
2023-03-25T17:55:55.153Z,62.76855469
2023-03-25T17:56:55.607Z,62.97607422
2023-03-25T17:57:55.996Z,63.17749023
2023-03-25T17:59:26.941Z,63.17749023
2023-03-25T18:00:27.453Z,63.28125
2023-03-25T18:01:27.959Z,63.28125
2023-03-25T18:02:28.382Z,63.38500977
2023-03-25T18:03:28.814Z,63.48266602
2023-03-25T18:04:29.342Z,63.48266602
2023-03-25T18:05:29.772Z,63.51318359
2023-03-25T18:06:30.185Z,63.61694336
2023-03-25T18:07:30.603Z,63.61694336
2023-03-25T18:08:31.082Z,63.72070313
2023-03-25T18:09:31.572Z,63.81835938
2023-03-25T18:10:32.048Z,63.92211914
2023-03-25T18:11:32.651Z,64.02587891
2023-03-25T18:12:32.973Z,64.12963867
2023-03-25T18:13:33.403Z,64.02587891
2023-03-25T18:14:33.920Z,64.02587891
2023-03-25T18:15:34.389Z,63.92211914
2023-03-25T18:16:34.981Z,63.99536133
2023-03-25T18:17:35.488Z,64.09912109
2023-03-25T18:18:35.908Z,63.99536133
2023-03-25T18:19:36.313Z,63.99536133
2023-03-25T18:20:36.716Z,64.20288086
2023-03-25T18:21:37.168Z,64.09912109
2023-03-25T18:22:37.627Z,64.20288086
2023-03-25T18:23:38.186Z,64.33105469
2023-03-25T18:24:38.654Z,64.43481445
2023-03-25T18:25:39.053Z,64.40429688
2023-03-25T18:26:39.565Z,64.40429688
2023-03-25T18:27:43.677Z,64.50805664
2023-03-25T18:28:40.500Z,64.50805664
2023-03-25T18:29:41.078Z,64.40429688
2023-03-25T18:30:41.555Z,64.30053711
2023-03-25T18:31:41.960Z,64.50805664
2023-03-25T18:32:42.458Z,64.50805664
2023-03-25T18:33:42.974Z,64.91699219
2023-03-25T18:34:43.602Z,66.65649414
2023-03-25T18:35:44.069Z,65.73486328
2023-03-25T18:36:44.517Z,66.55273438
2023-03-25T18:37:44.965Z,66.55273438
2023-03-25T18:38:45.596Z,65.9362793
2023-03-25T18:39:46.123Z,65.1184082
2023-03-25T18:40:46.494Z,64.70947266
2023-03-25T18:41:46.934Z,64.70947266
2023-03-25T18:42:47.378Z,64.70947266
2023-03-25T18:43:47.863Z,64.81323242
2023-03-25T18:44:50.142Z,64.81323242
2023-03-25T18:45:48.908Z,64.81323242
2023-03-25T18:46:49.283Z,64.81323242
2023-03-25T18:47:49.784Z,64.81323242
2023-03-25T18:48:50.218Z,65.02075195
2023-03-25T18:49:50.764Z,65.22216797
2023-03-25T18:50:51.336Z,65.32592773
2023-03-25T18:51:51.707Z,64.91699219
2023-03-25T18:52:52.136Z,64.81323242
2023-03-25T18:53:52.580Z,64.70947266
2023-03-25T18:54:53.190Z,64.67895508
2023-03-25T18:55:53.612Z,64.58129883
2023-03-25T18:56:54.149Z,64.70947266
2023-03-25T18:57:54.609Z,64.70947266
2023-03-25T18:58:55.046Z,64.91699219
2023-03-25T19:00:26.203Z,65.02075195
2023-03-25T19:01:26.730Z,65.1184082
2023-03-25T19:02:27.407Z,65.1184082
2023-03-25T19:03:27.799Z,65.1184082
2023-03-25T19:04:28.312Z,65.25268555
2023-03-25T19:05:28.879Z,65.4296875
2023-03-25T19:06:29.325Z,65.55786133
2023-03-25T19:07:29.774Z,65.55786133
2023-03-25T19:08:30.227Z,65.63110352
2023-03-25T19:09:30.661Z,65.52734375
2023-03-25T19:10:31.148Z,65.4296875
2023-03-25T19:11:31.590Z,65.52734375
2023-03-25T19:12:32.217Z,65.55786133
2023-03-25T19:13:32.846Z,65.63110352
2023-03-25T19:14:33.312Z,65.63110352
2023-03-25T19:15:33.797Z,65.73486328
2023-03-25T19:16:34.214Z,65.73486328
2023-03-25T19:17:34.742Z,65.83862305
2023-03-25T19:18:35.128Z,65.9362793
2023-03-25T19:19:35.586Z,66.04003906
2023-03-25T19:20:36.135Z,66.04003906
2023-03-25T19:21:36.455Z,65.83862305
2023-03-25T19:22:36.987Z,65.9362793
2023-03-25T19:23:37.586Z,65.9362793
2023-03-25T19:24:38.078Z,65.96679688
2023-03-25T19:25:38.535Z,66.17431641
2023-03-25T19:26:38.981Z,66.17431641
2023-03-25T19:27:39.419Z,66.24755859
2023-03-25T19:28:39.898Z,66.17431641
2023-03-25T19:29:40.400Z,65.9362793
2023-03-25T19:30:40.984Z,66.07055664
2023-03-25T19:31:41.353Z,66.07055664
2023-03-25T19:32:41.853Z,66.17431641
2023-03-25T19:33:42.243Z,66.17431641
2023-03-25T19:34:42.888Z,66.27807617
2023-03-25T19:35:43.489Z,66.27807617
2023-03-25T19:36:43.873Z,66.34521484
2023-03-25T19:37:44.313Z,66.55273438
2023-03-25T19:38:44.760Z,66.34521484
2023-03-25T19:39:45.232Z,66.34521484
2023-03-25T19:40:45.819Z,66.27807617
2023-03-25T19:41:46.222Z,66.34521484
2023-03-25T19:42:46.674Z,66.24755859
2023-03-25T19:43:47.106Z,66.24755859
2023-03-25T19:44:47.553Z,66.37573242
2023-03-25T19:45:48.102Z,66.44897461
2023-03-25T19:46:48.491Z,66.37573242
2023-03-25T19:47:48.947Z,66.47949219
2023-03-25T19:48:49.374Z,66.47949219
2023-03-25T19:49:49.855Z,66.58325195
2023-03-25T19:50:50.520Z,66.47949219
2023-03-25T19:51:50.811Z,66.37573242
2023-03-25T19:52:51.284Z,66.47949219
2023-03-25T19:53:51.806Z,66.37573242
2023-03-25T19:54:52.247Z,66.37573242
2023-03-25T19:55:52.980Z,66.47949219
2023-03-25T19:56:53.392Z,66.37573242
2023-03-25T19:57:53.885Z,66.47949219
2023-03-25T19:58:54.311Z,66.47949219
2023-03-25T20:00:25.521Z,66.37573242
2023-03-25T20:01:26.157Z,66.27807617
2023-03-25T20:02:26.711Z,66.47949219
2023-03-25T20:03:27.148Z,66.47949219
2023-03-25T20:04:27.492Z,66.37573242
2023-03-25T20:05:27.982Z,66.47949219
2023-03-25T20:06:28.507Z,66.68701172
2023-03-25T20:07:28.889Z,66.58325195
2023-03-25T20:08:29.461Z,66.58325195
2023-03-25T20:09:29.938Z,66.58325195
2023-03-25T20:10:30.454Z,66.47949219
2023-03-25T20:11:30.982Z,66.47949219
2023-03-25T20:12:31.601Z,66.58325195
2023-03-25T20:13:32.072Z,66.58325195
2023-03-25T20:14:32.648Z,66.58325195
2023-03-25T20:15:33.147Z,66.58325195
2023-03-25T20:16:33.623Z,66.47949219
2023-03-25T20:17:34.022Z,66.58325195
2023-03-25T20:18:34.483Z,66.7175293
2023-03-25T20:19:34.928Z,66.61376953